sensor_id;sensor_type;location;lat;lon;timestamp;pressure;altitude;pressure_sealevel;temperature;humidity
58686;BME280;44465;53.206;-6.106;2023-08-08T00:02:14;101530.72;;;22.65;52.22
58686;BME280;44465;53.206;-6.106;2023-08-08T00:04:40;101530.72;;;22.65;52.29
58686;BME280;44465;53.206;-6.106;2023-08-08T00:07:05;101528.09;;;22.63;52.20
58686;BME280;44465;53.206;-6.106;2023-08-08T00:09:31;101515.72;;;22.60;52.45
58686;BME280;44465;53.206;-6.106;2023-08-08T00:11:57;101528.97;;;22.64;52.50
58686;BME280;44465;53.206;-6.106;2023-08-08T00:14:23;101516.66;;;22.59;52.29
58686;BME280;44465;53.206;-6.106;2023-08-08T00:16:49;101500.88;;;22.53;52.43
58686;BME280;44465;53.206;-6.106;2023-08-08T00:19:14;101518.25;;;22.64;52.50
58686;BME280;44465;53.206;-6.106;2023-08-08T00:21:40;101506.94;;;22.57;52.18
58686;BME280;44465;53.206;-6.106;2023-08-08T00:24:05;101513.03;;;22.60;52.54
58686;BME280;44465;53.206;-6.106;2023-08-08T00:26:31;101510.34;;;22.60;52.33
58686;BME280;44465;53.206;-6.106;2023-08-08T00:28:56;101499.75;;;22.57;52.27
58686;BME280;44465;53.206;-6.106;2023-08-08T00:31:22;101489.00;;;22.57;52.25
58686;BME280;44465;53.206;-6.106;2023-08-08T00:33:47;101497.25;;;22.54;52.32
58686;BME280;44465;53.206;-6.106;2023-08-08T00:36:13;101490.00;;;22.56;52.40
58686;BME280;44465;53.206;-6.106;2023-08-08T00:38:38;101498.03;;;22.56;52.43
58686;BME280;44465;53.206;-6.106;2023-08-08T00:41:04;101488.25;;;22.55;52.37
58686;BME280;44465;53.206;-6.106;2023-08-08T00:43:30;101505.91;;;22.59;52.53
58686;BME280;44465;53.206;-6.106;2023-08-08T00:45:56;101501.34;;;22.61;52.61
58686;BME280;44465;53.206;-6.106;2023-08-08T00:48:23;101491.69;;;22.57;52.40
58686;BME280;44465;53.206;-6.106;2023-08-08T00:50:49;101494.31;;;22.59;52.41
58686;BME280;44465;53.206;-6.106;2023-08-08T00:53:17;101494.31;;;22.59;52.56
58686;BME280;44465;53.206;-6.106;2023-08-08T00:55:43;101504.19;;;22.58;52.63
58686;BME280;44465;53.206;-6.106;2023-08-08T00:58:09;101498.81;;;22.58;52.48
58686;BME280;44465;53.206;-6.106;2023-08-08T01:00:35;101500.53;;;22.59;52.34
58686;BME280;44465;53.206;-6.106;2023-08-08T01:03:00;101491.88;;;22.54;52.33
58686;BME280;44465;53.206;-6.106;2023-08-08T01:05:31;101477.75;;;22.51;52.35
58686;BME280;44465;53.206;-6.106;2023-08-08T01:08:04;101491.63;;;22.59;52.23
58686;BME280;44465;53.206;-6.106;2023-08-08T01:10:32;101482.94;;;22.54;52.49
58686;BME280;44465;53.206;-6.106;2023-08-08T01:13:02;101474.03;;;22.53;52.25
58686;BME280;44465;53.206;-6.106;2023-08-08T01:15:29;101484.44;;;22.59;52.53
58686;BME280;44465;53.206;-6.106;2023-08-08T01:18:03;101485.63;;;22.54;52.45
58686;BME280;44465;53.206;-6.106;2023-08-08T01:20:29;101486.28;;;22.59;52.26
58686;BME280;44465;53.206;-6.106;2023-08-08T01:25:27;101460.66;;;22.52;52.53
58686;BME280;44465;53.206;-6.106;2023-08-08T01:27:53;101481.94;;;22.56;52.41
58686;BME280;44465;53.206;-6.106;2023-08-08T01:30:18;101466.13;;;22.50;52.53
58686;BME280;44465;53.206;-6.106;2023-08-08T01:32:44;101485.56;;;22.55;52.37
58686;BME280;44465;53.206;-6.106;2023-08-08T01:35:09;101470.00;;;22.44;52.46
58686;BME280;44465;53.206;-6.106;2023-08-08T01:37:53;101480.34;;;22.52;52.46
58686;BME280;44465;53.206;-6.106;2023-08-08T01:40:22;101471.59;;;22.49;52.56
58686;BME280;44465;53.206;-6.106;2023-08-08T01:42:50;101457.28;;;22.48;52.62
58686;BME280;44465;53.206;-6.106;2023-08-08T01:45:16;101459.16;;;22.46;52.51
58686;BME280;44465;53.206;-6.106;2023-08-08T01:47:42;101466.28;;;22.47;52.71
58686;BME280;44465;53.206;-6.106;2023-08-08T01:50:08;101461.09;;;22.44;52.62
58686;BME280;44465;53.206;-6.106;2023-08-08T01:52:34;101472.53;;;22.48;52.63
58686;BME280;44465;53.206;-6.106;2023-08-08T01:55:02;101478.84;;;22.46;52.59
58686;BME280;44465;53.206;-6.106;2023-08-08T01:57:27;101467.88;;;22.51;52.60
58686;BME280;44465;53.206;-6.106;2023-08-08T01:59:53;101466.13;;;22.50;52.67
58686;BME280;44465;53.206;-6.106;2023-08-08T02:02:18;101470.47;;;22.53;52.65
58686;BME280;44465;53.206;-6.106;2023-08-08T02:04:44;101470.41;;;22.54;52.64
58686;BME280;44465;53.206;-6.106;2023-08-08T02:07:09;101463.44;;;22.50;52.91
58686;BME280;44465;53.206;-6.106;2023-08-08T02:09:35;101463.28;;;22.53;52.53
58686;BME280;44465;53.206;-6.106;2023-08-08T02:12:01;101466.84;;;22.54;52.60
58686;BME280;44465;53.206;-6.106;2023-08-08T02:14:26;101458.78;;;22.54;52.56
58686;BME280;44465;53.206;-6.106;2023-08-08T02:16:52;101462.34;;;22.54;52.33
58686;BME280;44465;53.206;-6.106;2023-08-08T02:19:18;101451.63;;;22.54;52.53
58686;BME280;44465;53.206;-6.106;2023-08-08T02:21:43;101454.22;;;22.56;52.42
58686;BME280;44465;53.206;-6.106;2023-08-08T02:24:09;101456.03;;;22.55;52.66
58686;BME280;44465;53.206;-6.106;2023-08-08T02:26:34;101441.97;;;22.50;52.58
58686;BME280;44465;53.206;-6.106;2023-08-08T02:29:00;101444.66;;;22.50;52.67
58686;BME280;44465;53.206;-6.106;2023-08-08T02:31:25;101443.84;;;22.48;52.73
58686;BME280;44465;53.206;-6.106;2023-08-08T02:33:51;101434.16;;;22.45;52.64
58686;BME280;44465;53.206;-6.106;2023-08-08T02:36:17;101441.13;;;22.50;52.50
58686;BME280;44465;53.206;-6.106;2023-08-08T02:38:43;101429.81;;;22.43;52.59
58686;BME280;44465;53.206;-6.106;2023-08-08T02:41:09;101434.88;;;22.49;52.54
58686;BME280;44465;53.206;-6.106;2023-08-08T02:43:34;101435.91;;;22.46;52.89
58686;BME280;44465;53.206;-6.106;2023-08-08T02:46:00;101435.00;;;22.46;52.68
58686;BME280;44465;53.206;-6.106;2023-08-08T02:48:26;101429.81;;;22.43;52.80
58686;BME280;44465;53.206;-6.106;2023-08-08T02:50:52;101431.22;;;22.50;52.74
58686;BME280;44465;53.206;-6.106;2023-08-08T02:53:20;101425.31;;;22.43;52.92
58686;BME280;44465;53.206;-6.106;2023-08-08T02:55:47;101434.88;;;22.49;52.73
58686;BME280;44465;53.206;-6.106;2023-08-08T02:58:13;101429.66;;;22.46;52.77
58686;BME280;44465;53.206;-6.106;2023-08-08T03:00:38;101431.72;;;22.41;52.72
58686;BME280;44465;53.206;-6.106;2023-08-08T03:03:07;101430.63;;;22.45;52.77
58686;BME280;44465;53.206;-6.106;2023-08-08T03:05:33;101429.66;;;22.46;52.71
58686;BME280;44465;53.206;-6.106;2023-08-08T03:07:59;101436.59;;;22.50;52.85
58686;BME280;44465;53.206;-6.106;2023-08-08T03:10:25;101428.78;;;22.45;52.69
58686;BME280;44465;53.206;-6.106;2023-08-08T03:12:52;101441.13;;;22.50;52.93
58686;BME280;44465;53.206;-6.106;2023-08-08T03:15:19;101432.31;;;22.46;52.85
58686;BME280;44465;53.206;-6.106;2023-08-08T03:17:45;101430.44;;;22.48;52.77
58686;BME280;44465;53.206;-6.106;2023-08-08T03:20:11;101417.19;;;22.45;52.86
58686;BME280;44465;53.206;-6.106;2023-08-08T03:22:37;101420.66;;;22.47;52.78
58686;BME280;44465;53.206;-6.106;2023-08-08T03:25:04;101423.44;;;22.45;52.84
58686;BME280;44465;53.206;-6.106;2023-08-08T03:27:30;101412.84;;;22.42;52.96
58686;BME280;44465;53.206;-6.106;2023-08-08T03:29:55;101431.38;;;22.47;53.02
58686;BME280;44465;53.206;-6.106;2023-08-08T03:32:22;101408.47;;;22.40;53.05
58686;BME280;44465;53.206;-6.106;2023-08-08T03:34:47;101422.38;;;22.48;52.97
58686;BME280;44465;53.206;-6.106;2023-08-08T03:37:13;101423.34;;;22.47;52.91
58686;BME280;44465;53.206;-6.106;2023-08-08T03:39:39;101416.31;;;22.44;52.78
58686;BME280;44465;53.206;-6.106;2023-08-08T03:42:05;101415.47;;;22.44;52.89
58686;BME280;44465;53.206;-6.106;2023-08-08T03:44:31;101421.84;;;22.41;53.04
58686;BME280;44465;53.206;-6.106;2023-08-08T03:46:56;101424.28;;;22.46;52.97
58686;BME280;44465;53.206;-6.106;2023-08-08T03:49:23;101423.50;;;22.44;52.89
58686;BME280;44465;53.206;-6.106;2023-08-08T03:51:48;101428.09;;;22.42;52.92
58686;BME280;44465;53.206;-6.106;2023-08-08T03:54:14;101435.00;;;22.46;52.96
58686;BME280;44465;53.206;-6.106;2023-08-08T03:56:40;101419.09;;;22.43;53.05
58686;BME280;44465;53.206;-6.106;2023-08-08T03:59:08;101419.94;;;22.43;53.07
58686;BME280;44465;53.206;-6.106;2023-08-08T04:01:33;101411.97;;;22.42;52.78
58686;BME280;44465;53.206;-6.106;2023-08-08T04:03:59;101411.25;;;22.38;53.26
58686;BME280;44465;53.206;-6.106;2023-08-08T04:06:24;101413.13;;;22.36;53.09
58686;BME280;44465;53.206;-6.106;2023-08-08T04:08:50;101416.53;;;22.40;53.06
58686;BME280;44465;53.206;-6.106;2023-08-08T04:11:16;101414.66;;;22.42;52.92
58686;BME280;44465;53.206;-6.106;2023-08-08T04:13:41;101402.31;;;22.38;53.21
58686;BME280;44465;53.206;-6.106;2023-08-08T04:16:07;101402.19;;;22.41;53.07
58686;BME280;44465;53.206;-6.106;2023-08-08T04:18:32;101406.53;;;22.43;53.09
58686;BME280;44465;53.206;-6.106;2023-08-08T04:20:58;101397.75;;;22.40;53.13
58686;BME280;44465;53.206;-6.106;2023-08-08T04:23:23;101396.00;;;22.39;52.94
58686;BME280;44465;53.206;-6.106;2023-08-08T04:25:51;101380.84;;;22.38;53.16
58686;BME280;44465;53.206;-6.106;2023-08-08T04:28:17;101393.09;;;22.43;52.84
58686;BME280;44465;53.206;-6.106;2023-08-08T04:30:43;101398.56;;;22.42;53.14
58686;BME280;44465;53.206;-6.106;2023-08-08T04:33:08;101387.16;;;22.37;53.09
58686;BME280;44465;53.206;-6.106;2023-08-08T04:35:33;101379.03;;;22.38;53.01
58686;BME280;44465;53.206;-6.106;2023-08-08T04:37:59;101379.91;;;22.39;53.63
58686;BME280;44465;53.206;-6.106;2023-08-08T04:40:24;101383.41;;;22.41;53.06
58686;BME280;44465;53.206;-6.106;2023-08-08T04:42:51;101372.78;;;22.38;53.28
58686;BME280;44465;53.206;-6.106;2023-08-08T04:45:16;101367.38;;;22.39;52.99
58686;BME280;44465;53.206;-6.106;2023-08-08T04:47:42;101362.31;;;22.33;53.40
58686;BME280;44465;53.206;-6.106;2023-08-08T04:50:07;101373.69;;;22.38;53.28
58686;BME280;44465;53.206;-6.106;2023-08-08T04:52:33;101366.81;;;22.33;53.21
58686;BME280;44465;53.206;-6.106;2023-08-08T04:54:58;101371.06;;;22.37;53.49
58686;BME280;44465;53.206;-6.106;2023-08-08T04:57:24;101375.66;;;22.35;52.97
58686;BME280;44465;53.206;-6.106;2023-08-08T04:59:49;101382.56;;;22.40;53.29
58686;BME280;44465;53.206;-6.106;2023-08-08T05:02:15;101377.22;;;22.39;53.19
58686;BME280;44465;53.206;-6.106;2023-08-08T05:04:41;101380.06;;;22.36;52.95
58686;BME280;44465;53.206;-6.106;2023-08-08T05:07:07;101364.94;;;22.35;53.03
58686;BME280;44465;53.206;-6.106;2023-08-08T05:09:32;101365.69;;;22.37;53.11
58686;BME280;44465;53.206;-6.106;2023-08-08T05:11:58;101357.03;;;22.31;53.40
58686;BME280;44465;53.206;-6.106;2023-08-08T05:14:23;101369.25;;;22.37;53.24
58686;BME280;44465;53.206;-6.106;2023-08-08T05:16:49;101363.88;;;22.37;53.30
58686;BME280;44465;53.206;-6.106;2023-08-08T05:19:14;101351.66;;;22.31;53.24
58686;BME280;44465;53.206;-6.106;2023-08-08T05:21:40;101353.41;;;22.33;53.31
58686;BME280;44465;53.206;-6.106;2023-08-08T05:24:06;101346.19;;;22.33;53.37
58686;BME280;44465;53.206;-6.106;2023-08-08T05:26:31;101348.03;;;22.33;53.25
58686;BME280;44465;53.206;-6.106;2023-08-08T05:28:57;101367.44;;;22.38;53.28
58686;BME280;44465;53.206;-6.106;2023-08-08T05:31:22;101360.31;;;22.37;53.28
58686;BME280;44465;53.206;-6.106;2023-08-08T05:33:48;101374.50;;;22.40;53.42
58686;BME280;44465;53.206;-6.106;2023-08-08T05:36:14;101355.03;;;22.35;53.57
58686;BME280;44465;53.206;-6.106;2023-08-08T05:38:39;101357.50;;;22.40;53.41
58686;BME280;44465;53.206;-6.106;2023-08-08T05:41:06;101347.00;;;22.35;53.24
58686;BME280;44465;53.206;-6.106;2023-08-08T05:43:31;101352.28;;;22.37;53.35
58686;BME280;44465;53.206;-6.106;2023-08-08T05:45:57;101372.69;;;22.41;53.44
58686;BME280;44465;53.206;-6.106;2023-08-08T05:48:22;101368.38;;;22.37;53.50
58686;BME280;44465;53.206;-6.106;2023-08-08T05:50:48;101369.16;;;22.39;53.54
58686;BME280;44465;53.206;-6.106;2023-08-08T05:53:13;101365.47;;;22.41;53.32
58686;BME280;44465;53.206;-6.106;2023-08-08T05:55:41;101375.34;;;22.41;53.57
58686;BME280;44465;53.206;-6.106;2023-08-08T05:58:06;101363.94;;;22.36;53.35
58686;BME280;44465;53.206;-6.106;2023-08-08T06:00:32;101376.28;;;22.40;53.38
58686;BME280;44465;53.206;-6.106;2023-08-08T06:02:57;101376.28;;;22.40;53.36
58686;BME280;44465;53.206;-6.106;2023-08-08T06:05:23;101375.41;;;22.39;53.46
58686;BME280;44465;53.206;-6.106;2023-08-08T06:07:49;101381.78;;;22.37;53.40
58686;BME280;44465;53.206;-6.106;2023-08-08T06:10:15;101382.59;;;22.39;53.48
58686;BME280;44465;53.206;-6.106;2023-08-08T06:12:40;101369.16;;;22.39;53.58
58686;BME280;44465;53.206;-6.106;2023-08-08T06:15:06;101349.78;;;22.34;53.58
58686;BME280;44465;53.206;-6.106;2023-08-08T06:17:32;101362.16;;;22.36;53.56
58686;BME280;44465;53.206;-6.106;2023-08-08T06:19:58;101364.53;;;22.42;53.53
58686;BME280;44465;53.206;-6.106;2023-08-08T06:22:23;101365.53;;;22.40;53.48
58686;BME280;44465;53.206;-6.106;2023-08-08T06:24:49;101332.72;;;22.35;53.71
58686;BME280;44465;53.206;-6.106;2023-08-08T06:27:14;101342.47;;;22.36;53.64
58686;BME280;44465;53.206;-6.106;2023-08-08T06:29:40;101348.44;;;22.42;53.52
58686;BME280;44465;53.206;-6.106;2023-08-08T06:32:06;101359.97;;;22.44;53.70
58686;BME280;44465;53.206;-6.106;2023-08-08T06:34:32;101360.84;;;22.45;53.44
58686;BME280;44465;53.206;-6.106;2023-08-08T06:36:57;101356.56;;;22.41;53.48
58686;BME280;44465;53.206;-6.106;2023-08-08T06:39:23;101371.81;;;22.40;53.46
58686;BME280;44465;53.206;-6.106;2023-08-08T06:41:48;101375.28;;;22.42;53.50
58686;BME280;44465;53.206;-6.106;2023-08-08T06:44:19;101383.16;;;22.45;53.47
58686;BME280;44465;53.206;-6.106;2023-08-08T06:46:44;101362.94;;;22.38;53.43
58686;BME280;44465;53.206;-6.106;2023-08-08T06:49:09;101366.56;;;22.37;53.47
58686;BME280;44465;53.206;-6.106;2023-08-08T06:51:35;101367.44;;;22.38;53.67
58686;BME280;44465;53.206;-6.106;2023-08-08T06:54:01;101384.25;;;22.41;53.75
58686;BME280;44465;53.206;-6.106;2023-08-08T06:56:26;101384.13;;;22.44;53.49
58686;BME280;44465;53.206;-6.106;2023-08-08T06:58:53;101364.63;;;22.41;53.94
58686;BME280;44465;53.206;-6.106;2023-08-08T07:01:18;101356.47;;;22.42;53.77
58686;BME280;44465;53.206;-6.106;2023-08-08T07:03:44;101366.03;;;22.48;54.08
58686;BME280;44465;53.206;-6.106;2023-08-08T07:06:10;101356.47;;;22.42;53.65
58686;BME280;44465;53.206;-6.106;2023-08-08T07:08:36;101352.06;;;22.41;53.50
58686;BME280;44465;53.206;-6.106;2023-08-08T07:11:04;101368.72;;;22.48;53.58
58686;BME280;44465;53.206;-6.106;2023-08-08T07:13:31;101366.13;;;22.46;53.77
58686;BME280;44465;53.206;-6.106;2023-08-08T07:15:56;101370.31;;;22.52;53.70
58686;BME280;44465;53.206;-6.106;2023-08-08T07:18:22;101351.91;;;22.44;53.96
58686;BME280;44465;53.206;-6.106;2023-08-08T07:20:47;101352.69;;;22.46;53.77
58686;BME280;44465;53.206;-6.106;2023-08-08T07:23:12;101352.59;;;22.48;53.74
58686;BME280;44465;53.206;-6.106;2023-08-08T07:25:38;101346.53;;;22.44;53.45
58686;BME280;44465;53.206;-6.106;2023-08-08T07:28:04;101351.81;;;22.46;53.42
58686;BME280;44465;53.206;-6.106;2023-08-08T07:30:29;101334.38;;;22.37;53.49
58686;BME280;44465;53.206;-6.106;2023-08-08T07:32:54;101356.44;;;22.44;53.75
58686;BME280;44465;53.206;-6.106;2023-08-08T07:35:20;101328.78;;;22.42;53.64
58686;BME280;44465;53.206;-6.106;2023-08-08T07:37:45;101327.66;;;22.46;53.77
58686;BME280;44465;53.206;-6.106;2023-08-08T07:40:16;101342.81;;;22.47;53.69
58686;BME280;44465;53.206;-6.106;2023-08-08T07:42:43;101328.91;;;22.39;53.75
58686;BME280;44465;53.206;-6.106;2023-08-08T07:45:09;101332.34;;;22.42;53.69
58686;BME280;44465;53.206;-6.106;2023-08-08T07:47:34;101339.75;;;22.37;53.56
58686;BME280;44465;53.206;-6.106;2023-08-08T07:50:00;101355.53;;;22.43;53.70
58686;BME280;44465;53.206;-6.106;2023-08-08T07:52:25;101346.69;;;22.41;53.68
58686;BME280;44465;53.206;-6.106;2023-08-08T07:54:51;101356.25;;;22.47;53.74
58686;BME280;44465;53.206;-6.106;2023-08-08T07:57:16;101348.28;;;22.45;53.69
58686;BME280;44465;53.206;-6.106;2023-08-08T07:59:42;101357.50;;;22.40;53.79
58686;BME280;44465;53.206;-6.106;2023-08-08T08:02:08;101363.69;;;22.42;53.67
58686;BME280;44465;53.206;-6.106;2023-08-08T08:04:34;101359.88;;;22.46;53.50
58686;BME280;44465;53.206;-6.106;2023-08-08T08:07:00;101375.03;;;22.47;53.42
58686;BME280;44465;53.206;-6.106;2023-08-08T08:09:26;101382.38;;;22.43;53.56
58686;BME280;44465;53.206;-6.106;2023-08-08T08:11:51;101371.63;;;22.43;53.46
58686;BME280;44465;53.206;-6.106;2023-08-08T08:14:17;101389.47;;;22.44;53.46
58686;BME280;44465;53.206;-6.106;2023-08-08T08:16:44;101351.41;;;22.36;53.44
58686;BME280;44465;53.206;-6.106;2023-08-08T08:19:10;101351.06;;;22.44;53.59
58686;BME280;44465;53.206;-6.106;2023-08-08T08:21:35;101347.44;;;22.45;53.59
58686;BME280;44465;53.206;-6.106;2023-08-08T08:24:01;101364.28;;;22.47;53.57
58686;BME280;44465;53.206;-6.106;2023-08-08T08:26:27;101351.91;;;22.44;53.68
58686;BME280;44465;53.206;-6.106;2023-08-08T08:28:53;101364.22;;;22.49;53.75
58686;BME280;44465;53.206;-6.106;2023-08-08T08:31:18;101343.84;;;22.44;54.05
58686;BME280;44465;53.206;-6.106;2023-08-08T08:33:44;101354.50;;;22.46;53.92
58686;BME280;44465;53.206;-6.106;2023-08-08T08:36:09;101359.09;;;22.44;53.90
58686;BME280;44465;53.206;-6.106;2023-08-08T08:38:35;101344.22;;;22.37;53.61
58686;BME280;44465;53.206;-6.106;2023-08-08T08:41:02;101342.06;;;22.45;53.61
58686;BME280;44465;53.206;-6.106;2023-08-08T08:43:29;101338.25;;;22.49;53.74
58686;BME280;44465;53.206;-6.106;2023-08-08T08:45:57;101346.25;;;22.51;53.65
58686;BME280;44465;53.206;-6.106;2023-08-08T08:48:25;101339.38;;;22.45;53.83
58686;BME280;44465;53.206;-6.106;2023-08-08T08:50:51;101362.34;;;22.51;53.57
58686;BME280;44465;53.206;-6.106;2023-08-08T08:53:17;101371.25;;;22.51;53.54
58686;BME280;44465;53.206;-6.106;2023-08-08T08:55:43;101355.22;;;22.50;53.79
58686;BME280;44465;53.206;-6.106;2023-08-08T08:58:09;101341.72;;;22.51;53.50
58686;BME280;44465;53.206;-6.106;2023-08-08T09:00:35;101352.38;;;22.53;53.87
58686;BME280;44465;53.206;-6.106;2023-08-08T09:03:02;101342.81;;;22.47;53.88
58686;BME280;44465;53.206;-6.106;2023-08-08T09:05:30;101353.50;;;22.49;54.02
58686;BME280;44465;53.206;-6.106;2023-08-08T09:07:57;101347.44;;;22.45;53.89
58686;BME280;44465;53.206;-6.106;2023-08-08T09:10:24;101376.28;;;22.57;53.75
58686;BME280;44465;53.206;-6.106;2023-08-08T09:12:49;101372.03;;;22.53;53.91
58686;BME280;44465;53.206;-6.106;2023-08-08T09:15:15;101373.78;;;22.54;53.78
58686;BME280;44465;53.206;-6.106;2023-08-08T09:17:41;101363.91;;;22.55;53.81
58686;BME280;44465;53.206;-6.106;2023-08-08T09:20:08;101366.34;;;22.59;53.86
58686;BME280;44465;53.206;-6.106;2023-08-08T09:22:36;101361.16;;;22.56;53.82
58686;BME280;44465;53.206;-6.106;2023-08-08T09:25:03;101359.22;;;22.58;53.68
58686;BME280;44465;53.206;-6.106;2023-08-08T09:27:29;101360.16;;;22.57;53.88
58686;BME280;44465;53.206;-6.106;2023-08-08T09:29:54;101355.84;;;22.55;53.63
58686;BME280;44465;53.206;-6.106;2023-08-08T09:32:20;101350.41;;;22.56;53.83
58686;BME280;44465;53.206;-6.106;2023-08-08T09:34:46;101354.91;;;22.56;53.68
58686;BME280;44465;53.206;-6.106;2023-08-08T09:37:11;101363.75;;;22.58;53.81
58686;BME280;44465;53.206;-6.106;2023-08-08T09:39:37;101347.88;;;22.53;54.00
58686;BME280;44465;53.206;-6.106;2023-08-08T09:42:03;101360.00;;;22.60;54.19
58686;BME280;44465;53.206;-6.106;2023-08-08T09:44:29;101361.66;;;22.63;53.91
58686;BME280;44465;53.206;-6.106;2023-08-08T09:46:56;101350.56;;;22.53;53.90
58686;BME280;44465;53.206;-6.106;2023-08-08T09:49:23;101365.22;;;22.64;54.10
58686;BME280;44465;53.206;-6.106;2023-08-08T09:51:51;101360.97;;;22.59;54.16
58686;BME280;44465;53.206;-6.106;2023-08-08T09:54:18;101375.03;;;22.65;54.18
58686;BME280;44465;53.206;-6.106;2023-08-08T09:56:43;101378.56;;;22.65;54.11
58686;BME280;44465;53.206;-6.106;2023-08-08T09:59:09;101380.53;;;22.61;54.06
58686;BME280;44465;53.206;-6.106;2023-08-08T10:01:36;101369.97;;;22.58;53.86
58686;BME280;44465;53.206;-6.106;2023-08-08T10:04:04;101395.06;;;22.57;53.93
58686;BME280;44465;53.206;-6.106;2023-08-08T10:06:31;101387.75;;;22.61;53.99
58686;BME280;44465;53.206;-6.106;2023-08-08T10:08:57;101378.72;;;22.62;53.71
58686;BME280;44465;53.206;-6.106;2023-08-08T10:11:24;101361.16;;;22.56;53.90
58686;BME280;44465;53.206;-6.106;2023-08-08T10:13:50;101380.69;;;22.58;54.14
58686;BME280;44465;53.206;-6.106;2023-08-08T10:16:17;101389.69;;;22.57;54.05
58686;BME280;44465;53.206;-6.106;2023-08-08T10:18:45;101373.28;;;22.64;54.42
58686;BME280;44465;53.206;-6.106;2023-08-08T10:21:11;101369.56;;;22.66;54.11
58686;BME280;44465;53.206;-6.106;2023-08-08T10:23:39;101369.56;;;22.66;54.36
58686;BME280;44465;53.206;-6.106;2023-08-08T10:26:06;101367.75;;;22.67;54.22
58686;BME280;44465;53.206;-6.106;2023-08-08T10:28:55;101383.78;;;22.68;54.01
58686;BME280;44465;53.206;-6.106;2023-08-08T10:31:22;101378.31;;;22.70;53.87
58686;BME280;44465;53.206;-6.106;2023-08-08T10:33:47;101384.63;;;22.69;54.15
58686;BME280;44465;53.206;-6.106;2023-08-08T10:36:13;101386.47;;;22.68;54.10
58686;BME280;44465;53.206;-6.106;2023-08-08T10:38:43;101385.50;;;22.69;54.12
58686;BME280;44465;53.206;-6.106;2023-08-08T10:41:15;101385.41;;;22.71;54.17
58686;BME280;44465;53.206;-6.106;2023-08-08T10:43:56;101396.16;;;22.71;53.87
58686;BME280;44465;53.206;-6.106;2023-08-08T10:46:30;101391.84;;;22.68;53.60
58686;BME280;44465;53.206;-6.106;2023-08-08T10:49:00;101397.03;;;22.71;53.91
58686;BME280;44465;53.206;-6.106;2023-08-08T10:51:40;101387.50;;;22.66;53.75
58686;BME280;44465;53.206;-6.106;2023-08-08T10:54:16;101386.56;;;22.67;53.76
58686;BME280;44465;53.206;-6.106;2023-08-08T10:56:49;101381.94;;;22.69;53.96
58686;BME280;44465;53.206;-6.106;2023-08-08T10:59:17;101389.06;;;22.70;54.05
58686;BME280;44465;53.206;-6.106;2023-08-08T11:01:48;101387.31;;;22.69;54.05
58686;BME280;44465;53.206;-6.106;2023-08-08T11:04:16;101397.75;;;22.75;53.92
58686;BME280;44465;53.206;-6.106;2023-08-08T11:06:43;101368.78;;;22.64;53.82
58686;BME280;44465;53.206;-6.106;2023-08-08T11:09:09;101374.84;;;22.68;53.94
58686;BME280;44465;53.206;-6.106;2023-08-08T11:11:42;101365.69;;;22.72;54.13
58686;BME280;44465;53.206;-6.106;2023-08-08T11:14:16;101360.56;;;22.67;53.87
58686;BME280;44465;53.206;-6.106;2023-08-08T11:16:42;101370.97;;;22.73;54.04
58686;BME280;44465;53.206;-6.106;2023-08-08T11:19:10;101369.31;;;22.71;53.99
58686;BME280;44465;53.206;-6.106;2023-08-08T11:21:38;101359.88;;;22.64;53.83
58686;BME280;44465;53.206;-6.106;2023-08-08T11:24:05;101363.94;;;22.71;53.95
58686;BME280;44465;53.206;-6.106;2023-08-08T11:26:31;101365.06;;;22.67;53.82
58686;BME280;44465;53.206;-6.106;2023-08-08T11:28:59;101376.41;;;22.72;53.83
58686;BME280;44465;53.206;-6.106;2023-08-08T11:31:25;101374.84;;;22.68;53.76
58686;BME280;44465;53.206;-6.106;2023-08-08T11:33:52;101390.78;;;22.71;53.86
58686;BME280;44465;53.206;-6.106;2023-08-08T11:36:19;101381.00;;;22.70;53.54
58686;BME280;44465;53.206;-6.106;2023-08-08T11:38:44;101377.72;;;22.65;53.57
58686;BME280;44465;53.206;-6.106;2023-08-08T11:41:11;101393.47;;;22.71;53.86
58686;BME280;44465;53.206;-6.106;2023-08-08T11:43:39;101387.50;;;22.66;54.02
58686;BME280;44465;53.206;-6.106;2023-08-08T11:46:09;101397.03;;;22.71;54.05
58686;BME280;44465;53.206;-6.106;2023-08-08T11:48:35;101398.25;;;22.66;53.97
58686;BME280;44465;53.206;-6.106;2023-08-08T11:51:04;101410.38;;;22.73;53.58
58686;BME280;44465;53.206;-6.106;2023-08-08T11:53:29;101411.31;;;22.72;54.00
58686;BME280;44465;53.206;-6.106;2023-08-08T11:55:55;101408.78;;;22.69;53.98
58686;BME280;44465;53.206;-6.106;2023-08-08T11:58:24;101420.22;;;22.72;54.17
58686;BME280;44465;53.206;-6.106;2023-08-08T12:00:51;101414.84;;;22.72;53.90
58686;BME280;44465;53.206;-6.106;2023-08-08T12:03:18;101406.03;;;22.70;53.65
58686;BME280;44465;53.206;-6.106;2023-08-08T12:05:47;101390.78;;;22.71;54.08
58686;BME280;44465;53.206;-6.106;2023-08-08T12:08:20;101383.69;;;22.70;53.85
58686;BME280;44465;53.206;-6.106;2023-08-08T12:10:50;101375.09;;;22.63;53.75
58686;BME280;44465;53.206;-6.106;2023-08-08T12:13:23;101370.44;;;22.67;53.69
58686;BME280;44465;53.206;-6.106;2023-08-08T12:15:52;101373.34;;;22.62;53.63
58686;BME280;44465;53.206;-6.106;2023-08-08T12:18:19;101371.69;;;22.59;53.89
58686;BME280;44465;53.206;-6.106;2023-08-08T12:20:45;101379.34;;;22.67;53.89
58686;BME280;44465;53.206;-6.106;2023-08-08T12:23:12;101381.25;;;22.65;53.69
58686;BME280;44465;53.206;-6.106;2023-08-08T12:25:38;101382.84;;;22.69;53.80
58686;BME280;44465;53.206;-6.106;2023-08-08T12:28:04;101373.75;;;22.72;53.85
58686;BME280;44465;53.206;-6.106;2023-08-08T12:30:31;101370.19;;;22.71;53.90
58686;BME280;44465;53.206;-6.106;2023-08-08T12:32:56;101357.63;;;22.72;54.06
58686;BME280;44465;53.206;-6.106;2023-08-08T12:35:22;101345.50;;;22.65;53.94
58686;BME280;44465;53.206;-6.106;2023-08-08T12:37:47;101360.31;;;22.72;54.21
58686;BME280;44465;53.206;-6.106;2023-08-08T12:40:13;101340.03;;;22.66;54.03